createdAt,value
2018-11-10T00:00:06.135Z,19.38
2018-11-10T00:01:05.987Z,19.38
2018-11-10T00:02:06.142Z,19.38
2018-11-10T00:03:06.245Z,19.38
2018-11-10T00:04:06.604Z,19.36
2018-11-10T00:05:06.186Z,19.35
2018-11-10T00:06:06.080Z,19.35
2018-11-10T00:07:06.252Z,19.35
2018-11-10T00:08:06.592Z,19.34
2018-11-10T00:09:06.103Z,19.34
2018-11-10T00:10:06.344Z,19.33
2018-11-10T00:11:06.255Z,19.33
2018-11-10T00:12:05.951Z,19.33
2018-11-10T00:13:06.202Z,19.33
2018-11-10T00:14:05.970Z,19.33
2018-11-10T00:15:06.246Z,19.33
2018-11-10T00:16:06.232Z,19.33
2018-11-10T00:17:06.272Z,19.32
2018-11-10T00:18:06.172Z,19.31
2018-11-10T00:19:05.986Z,19.32
2018-11-10T00:20:06.136Z,19.31
2018-11-10T00:21:06.030Z,19.3
2018-11-10T00:22:06.052Z,19.3
2018-11-10T00:23:05.953Z,19.3
2018-11-10T00:24:06.216Z,19.29
2018-11-10T00:25:06.211Z,19.29
2018-11-10T00:26:06.062Z,19.29
2018-11-10T00:27:06.195Z,19.28
2018-11-10T00:28:07.092Z,19.28
2018-11-10T00:29:06.586Z,19.28
2018-11-10T00:30:06.180Z,19.27
2018-11-10T00:31:06.291Z,19.27
2018-11-10T00:32:06.646Z,19.27
2018-11-10T00:33:06.137Z,19.27
2018-11-10T00:34:06.377Z,19.26
2018-11-10T00:35:06.126Z,19.26
2018-11-10T00:36:06.261Z,19.26
2018-11-10T00:37:05.900Z,19.25
2018-11-10T00:38:06.076Z,19.25
2018-11-10T00:39:06.036Z,19.24
2018-11-10T00:40:06.259Z,19.24
2018-11-10T00:41:06.169Z,19.24
2018-11-10T00:42:06.009Z,19.22
2018-11-10T00:43:06.206Z,19.22
2018-11-10T00:44:06.010Z,19.22
2018-11-10T00:45:06.195Z,19.22
2018-11-10T00:46:05.943Z,19.21
2018-11-10T00:47:06.123Z,19.22
2018-11-10T00:48:06.143Z,19.22
2018-11-10T00:49:06.041Z,19.21
2018-11-10T00:50:06.290Z,19.21
2018-11-10T00:51:06.092Z,19.21
2018-11-10T00:52:06.186Z,19.21
2018-11-10T00:53:06.228Z,19.21
2018-11-10T00:54:06.398Z,19.2
2018-11-10T00:55:06.049Z,19.2
2018-11-10T00:56:06.044Z,19.2
2018-11-10T00:57:06.183Z,19.19
2018-11-10T00:58:06.426Z,19.19
2018-11-10T00:59:06.148Z,19.19
2018-11-10T01:00:06.074Z,19.2
2018-11-10T01:01:06.124Z,19.18
2018-11-10T01:02:06.284Z,19.17
2018-11-10T01:03:06.141Z,19.17
2018-11-10T01:04:05.972Z,19.18
2018-11-10T01:05:06.049Z,19.16
2018-11-10T01:06:06.119Z,19.16
2018-11-10T01:07:06.039Z,19.16
2018-11-10T01:08:06.275Z,19.16
2018-11-10T01:09:05.900Z,19.15
2018-11-10T01:10:06.397Z,19.15
2018-11-10T01:11:06.187Z,19.15
2018-11-10T01:12:06.062Z,19.15
2018-11-10T01:13:05.984Z,19.15
2018-11-10T01:14:06.176Z,19.15
2018-11-10T01:15:06.284Z,19.15
2018-11-10T01:16:06.086Z,19.14
2018-11-10T01:17:06.198Z,19.14
2018-11-10T01:18:06.033Z,19.14
2018-11-10T01:19:06.236Z,19.14
2018-11-10T01:20:06.651Z,19.13
2018-11-10T01:21:06.213Z,19.13
2018-11-10T01:22:06.043Z,19.13
2018-11-10T01:23:05.953Z,19.12
2018-11-10T01:24:06.163Z,19.12
2018-11-10T01:25:06.614Z,19.12
2018-11-10T01:26:06.040Z,19.11
2018-11-10T01:27:06.080Z,19.11
2018-11-10T01:28:06.431Z,19.11
2018-11-10T01:29:06.231Z,19.1
2018-11-10T01:30:06.121Z,19.11
2018-11-10T01:31:05.925Z,19.1
2018-11-10T01:32:05.968Z,19.11
2018-11-10T01:33:06.383Z,19.1
2018-11-10T01:34:06.013Z,19.09
2018-11-10T01:35:06.221Z,19.09
2018-11-10T01:36:05.875Z,19.09
2018-11-10T01:37:06.344Z,19.09
2018-11-10T01:38:06.221Z,19.08
2018-11-10T01:39:06.021Z,19.09
2018-11-10T01:40:05.866Z,19.08
2018-11-10T01:41:06.200Z,19.08
2018-11-10T01:42:06.320Z,19.08
2018-11-10T01:43:05.963Z,19.08
2018-11-10T01:44:05.969Z,19.08
2018-11-10T01:45:06.328Z,19.07
2018-11-10T01:46:06.104Z,19.07
2018-11-10T01:47:06.148Z,19.07
2018-11-10T01:48:06.243Z,19.07
2018-11-10T01:49:05.965Z,19.07
2018-11-10T01:50:05.966Z,19.07
2018-11-10T01:51:06.004Z,19.05
2018-11-10T01:52:06.161Z,19.05
2018-11-10T01:53:06.318Z,19.06
2018-11-10T01:54:06.075Z,19.05
2018-11-10T01:55:05.914Z,19.06
2018-11-10T01:56:06.136Z,19.05
2018-11-10T01:57:05.919Z,19.04
2018-11-10T01:58:07.387Z,19.04
2018-11-10T01:59:06.041Z,19.05
2018-11-10T02:00:06.036Z,19.04
2018-11-10T02:01:06.284Z,19.04
2018-11-10T02:02:05.979Z,19.03
2018-11-10T02:03:06.363Z,19.03
2018-11-10T02:04:06.005Z,19.03
2018-11-10T02:05:06.192Z,19.03
2018-11-10T02:06:05.928Z,19.03
2018-11-10T02:07:06.226Z,19.03
2018-11-10T02:08:06.143Z,19.03
2018-11-10T02:09:05.964Z,19.03
2018-11-10T02:10:06.110Z,19.02
2018-11-10T02:11:06.113Z,19.02
2018-11-10T02:12:06.141Z,19.02
2018-11-10T02:13:06.060Z,19.02
2018-11-10T02:14:06.171Z,19.01
2018-11-10T02:15:06.023Z,19.01
2018-11-10T02:16:05.919Z,19.01
2018-11-10T02:17:06.317Z,19
2018-11-10T02:18:06.096Z,19.01
2018-11-10T02:19:06.072Z,19
2018-11-10T02:20:06.092Z,19
2018-11-10T02:21:06.209Z,19.01
2018-11-10T02:22:06.101Z,18.99
2018-11-10T02:23:06.385Z,18.99
2018-11-10T02:24:06.073Z,18.99
2018-11-10T02:25:06.044Z,18.99
2018-11-10T02:26:06.187Z,18.98
2018-11-10T02:27:06.096Z,18.98
2018-11-10T02:28:06.147Z,18.98
2018-11-10T02:29:06.103Z,18.98
2018-11-10T02:30:06.090Z,18.97
2018-11-10T02:31:05.899Z,18.98
2018-11-10T02:32:06.332Z,18.98
2018-11-10T02:33:06.080Z,18.97
2018-11-10T02:34:05.964Z,18.97
2018-11-10T02:35:06.277Z,18.97
2018-11-10T02:36:06.066Z,18.97
2018-11-10T02:37:06.754Z,18.97
2018-11-10T02:38:05.866Z,18.97
2018-11-10T02:39:06.286Z,18.97
2018-11-10T02:40:06.113Z,18.97
2018-11-10T02:41:06.056Z,18.97
2018-11-10T02:42:06.518Z,18.97
2018-11-10T02:43:06.250Z,18.97
2018-11-10T02:44:06.075Z,18.96
2018-11-10T02:45:06.247Z,18.96
2018-11-10T02:46:06.271Z,18.95
2018-11-10T02:47:06.409Z,18.95
2018-11-10T02:48:06.156Z,18.96
2018-11-10T02:49:05.845Z,18.95
2018-11-10T02:50:06.340Z,18.95
2018-11-10T02:51:06.386Z,18.96
2018-11-10T02:52:05.868Z,18.95
2018-11-10T02:53:06.055Z,18.95
2018-11-10T02:54:06.185Z,18.95
2018-11-10T02:55:06.283Z,18.94
2018-11-10T02:56:06.020Z,18.95
2018-11-10T02:57:06.276Z,18.94
2018-11-10T02:58:06.069Z,18.94
2018-11-10T02:59:05.963Z,18.93
2018-11-10T03:00:06.529Z,18.93
2018-11-10T03:01:07.607Z,18.93
2018-11-10T03:02:05.976Z,18.93
2018-11-10T03:03:06.288Z,18.91
2018-11-10T03:04:06.249Z,18.92
2018-11-10T03:05:06.129Z,18.92
2018-11-10T03:06:06.080Z,18.91
2018-11-10T03:07:06.113Z,18.91
2018-11-10T03:08:05.966Z,18.9
2018-11-10T03:09:06.036Z,18.91
2018-11-10T03:10:05.846Z,18.91
2018-11-10T03:11:06.027Z,18.9
2018-11-10T03:12:06.022Z,18.9
2018-11-10T03:13:05.924Z,18.91
2018-11-10T03:14:06.486Z,18.9
2018-11-10T03:15:05.993Z,18.9
2018-11-10T03:16:06.379Z,18.9
2018-11-10T03:17:06.113Z,18.9
2018-11-10T03:18:06.137Z,18.9
2018-11-10T03:19:06.400Z,18.9
2018-11-10T03:20:06.019Z,18.9
2018-11-10T03:21:06.092Z,18.9
2018-11-10T03:22:06.118Z,18.9
2018-11-10T03:23:06.070Z,18.89
2018-11-10T03:24:06.036Z,18.88
2018-11-10T03:25:06.074Z,18.89
2018-11-10T03:26:06.063Z,18.89
2018-11-10T03:27:06.058Z,18.88
2018-11-10T03:28:06.151Z,18.88
2018-11-10T03:29:06.089Z,18.87
2018-11-10T03:30:06.829Z,18.87
2018-11-10T03:31:05.950Z,18.88
2018-11-10T03:32:06.528Z,18.88
2018-11-10T03:33:06.011Z,18.88
2018-11-10T03:34:06.276Z,18.87
2018-11-10T03:35:05.958Z,18.87
2018-11-10T03:36:06.057Z,18.87
2018-11-10T03:37:06.209Z,18.87
2018-11-10T03:38:06.281Z,18.86
2018-11-10T03:39:06.211Z,18.86
2018-11-10T03:40:06.021Z,18.86
2018-11-10T03:41:06.127Z,18.85
2018-11-10T03:42:05.870Z,18.86
2018-11-10T03:43:06.300Z,18.85
2018-11-10T03:44:06.252Z,18.85
2018-11-10T03:45:06.089Z,18.86
2018-11-10T03:46:06.063Z,18.85
2018-11-10T03:47:05.933Z,18.85
2018-11-10T03:48:06.024Z,18.85
2018-11-10T03:49:05.886Z,18.85
2018-11-10T03:50:06.013Z,18.85
2018-11-10T03:51:06.227Z,18.85
2018-11-10T03:52:05.964Z,18.84
2018-11-10T03:53:06.151Z,18.85
2018-11-10T03:54:06.078Z,18.85
2018-11-10T03:55:05.858Z,18.85
2018-11-10T03:56:05.963Z,18.84
2018-11-10T03:57:05.985Z,18.85
2018-11-10T03:58:05.867Z,18.85
2018-11-10T03:59:05.946Z,18.84
2018-11-10T04:00:06.104Z,18.85
2018-11-10T04:01:05.949Z,18.85
2018-11-10T04:02:06.103Z,18.84
2018-11-10T04:03:06.032Z,18.84
2018-11-10T04:04:06.040Z,18.84
2018-11-10T04:05:05.816Z,18.83
2018-11-10T04:06:06.699Z,18.83
2018-11-10T04:07:06.236Z,18.83
2018-11-10T04:08:05.897Z,18.82
2018-11-10T04:09:06.242Z,18.82
2018-11-10T04:10:06.139Z,18.82
2018-11-10T04:11:05.972Z,18.82
2018-11-10T04:12:05.978Z,18.83
2018-11-10T04:13:06.199Z,18.82
2018-11-10T04:14:06.162Z,18.82
2018-11-10T04:15:06.285Z,18.82
2018-11-10T04:16:06.075Z,18.81
2018-11-10T04:17:06.067Z,18.8
2018-11-10T04:18:06.138Z,18.81
2018-11-10T04:19:06.094Z,18.81
2018-11-10T04:20:06.107Z,18.81
2018-11-10T04:21:06.457Z,18.8
2018-11-10T04:22:05.990Z,18.79
2018-11-10T04:23:06.020Z,18.8
2018-11-10T04:24:06.186Z,18.8
2018-11-10T04:25:06.056Z,18.79
2018-11-10T04:26:06.145Z,18.79
2018-11-10T04:27:06.107Z,18.79
2018-11-10T04:28:06.267Z,18.79
2018-11-10T04:29:06.038Z,18.78
2018-11-10T04:30:06.134Z,18.79
2018-11-10T04:31:05.805Z,18.78
2018-11-10T04:32:06.163Z,18.78
2018-11-10T04:33:05.840Z,18.78
2018-11-10T04:34:06.083Z,18.79
2018-11-10T04:35:06.133Z,18.79
2018-11-10T04:36:05.991Z,18.78
2018-11-10T04:37:06.423Z,18.78
2018-11-10T04:38:06.144Z,18.78
2018-11-10T04:39:06.345Z,18.78
2018-11-10T04:40:06.963Z,18.78
2018-11-10T04:41:06.110Z,18.78
2018-11-10T04:42:05.971Z,18.77
2018-11-10T04:43:05.955Z,18.78
2018-11-10T04:44:06.203Z,18.78
2018-11-10T04:45:06.037Z,18.78
2018-11-10T04:46:06.113Z,18.78
2018-11-10T04:47:05.891Z,18.78
2018-11-10T04:48:06.198Z,18.78
2018-11-10T04:49:06.005Z,18.78
2018-11-10T04:50:06.103Z,18.78
2018-11-10T04:51:05.890Z,18.78
2018-11-10T04:52:05.903Z,18.79
2018-11-10T04:53:06.028Z,18.79
2018-11-10T04:54:06.353Z,18.8
2018-11-10T04:55:05.950Z,18.81
2018-11-10T04:56:05.944Z,18.82
2018-11-10T04:57:06.021Z,18.83
2018-11-10T04:58:05.808Z,18.84
2018-11-10T04:59:05.887Z,18.84
2018-11-10T05:00:06.147Z,18.85
2018-11-10T05:01:05.987Z,18.87
2018-11-10T05:02:06.019Z,18.88
2018-11-10T05:03:05.897Z,18.9
2018-11-10T05:04:06.187Z,18.9
2018-11-10T05:05:05.795Z,18.91
2018-11-10T05:06:06.260Z,18.93
2018-11-10T05:07:06.010Z,18.94
2018-11-10T05:08:06.215Z,18.95
2018-11-10T05:09:05.965Z,18.97
2018-11-10T05:10:05.912Z,18.97
2018-11-10T05:11:06.079Z,18.98
2018-11-10T05:12:05.881Z,18.99
2018-11-10T05:13:05.983Z,19.01
2018-11-10T05:14:06.043Z,19.03
2018-11-10T05:15:05.989Z,19.03
2018-11-10T05:16:05.989Z,19.04
2018-11-10T05:17:06.204Z,19.06
2018-11-10T05:18:06.113Z,19.08
2018-11-10T05:19:06.011Z,19.09
2018-11-10T05:20:05.916Z,19.1
2018-11-10T05:21:06.167Z,19.12
2018-11-10T05:22:06.233Z,19.14
2018-11-10T05:23:06.059Z,19.14
2018-11-10T05:24:06.012Z,19.15
2018-11-10T05:25:06.057Z,19.16
2018-11-10T05:26:05.943Z,19.18
2018-11-10T05:27:06.083Z,19.19
2018-11-10T05:28:06.410Z,19.2
2018-11-10T05:29:06.006Z,19.21
2018-11-10T05:30:05.994Z,19.23
2018-11-10T05:31:06.979Z,19.24
2018-11-10T05:32:06.078Z,19.25
2018-11-10T05:33:06.166Z,19.27
2018-11-10T05:34:05.933Z,19.27
2018-11-10T05:35:06.132Z,19.28
2018-11-10T05:36:05.964Z,19.29
2018-11-10T05:37:06.188Z,19.3
2018-11-10T05:38:06.275Z,19.31
2018-11-10T05:39:06.117Z,19.33
2018-11-10T05:40:06.188Z,19.33
2018-11-10T05:41:05.965Z,19.34
2018-11-10T05:42:05.984Z,19.36
2018-11-10T05:43:05.952Z,19.37
2018-11-10T05:44:06.188Z,19.37
2018-11-10T05:45:06.101Z,19.39
2018-11-10T05:46:06.307Z,19.4
2018-11-10T05:47:06.191Z,19.41
2018-11-10T05:48:06.138Z,19.43
2018-11-10T05:49:05.983Z,19.44
2018-11-10T05:50:06.433Z,19.44
2018-11-10T05:51:05.858Z,19.45
2018-11-10T05:52:05.815Z,19.46
2018-11-10T05:53:06.071Z,19.48
2018-11-10T05:54:05.949Z,19.48
2018-11-10T05:55:06.250Z,19.49
2018-11-10T05:56:05.867Z,19.5
2018-11-10T05:57:07.001Z,19.51
2018-11-10T05:58:06.012Z,19.51
2018-11-10T05:59:05.968Z,19.51
2018-11-10T06:00:06.074Z,19.52
2018-11-10T06:01:06.123Z,19.53
2018-11-10T06:02:06.013Z,19.53
2018-11-10T06:03:06.902Z,19.55
2018-11-10T06:04:06.120Z,19.55
2018-11-10T06:05:05.969Z,19.56
2018-11-10T06:06:05.985Z,19.56
2018-11-10T06:07:06.153Z,19.56
2018-11-10T06:08:06.053Z,19.57
2018-11-10T06:09:06.817Z,19.58
2018-11-10T06:10:08.062Z,19.59
2018-11-10T06:11:05.872Z,19.59
2018-11-10T06:12:06.061Z,19.59
2018-11-10T06:13:05.868Z,19.6
2018-11-10T06:14:05.962Z,19.62
2018-11-10T06:15:05.879Z,19.62
2018-11-10T06:16:06.430Z,19.63
2018-11-10T06:17:06.021Z,19.64
2018-11-10T06:18:06.126Z,19.64
2018-11-10T06:19:05.752Z,19.64
2018-11-10T06:20:05.800Z,19.66
2018-11-10T06:21:05.965Z,19.67
2018-11-10T06:22:05.787Z,19.67
2018-11-10T06:23:06.123Z,19.68
2018-11-10T06:24:05.979Z,19.69
2018-11-10T06:25:05.980Z,19.69
2018-11-10T06:26:07.018Z,19.7
2018-11-10T06:27:05.941Z,19.7
2018-11-10T06:28:05.873Z,19.71
2018-11-10T06:29:06.218Z,19.7
2018-11-10T06:30:05.885Z,19.71
2018-11-10T06:31:06.134Z,19.72
2018-11-10T06:32:05.913Z,19.73
2018-11-10T06:33:06.141Z,19.73
2018-11-10T06:34:05.960Z,19.72
2018-11-10T06:35:06.054Z,19.75
2018-11-10T06:36:06.140Z,19.75
2018-11-10T06:37:05.786Z,19.75
2018-11-10T06:38:06.137Z,19.75
2018-11-10T06:39:05.971Z,19.76
2018-11-10T06:40:06.414Z,19.76
2018-11-10T06:41:06.097Z,19.76
2018-11-10T06:42:06.224Z,19.76
2018-11-10T06:43:06.020Z,19.77
2018-11-10T06:44:06.023Z,19.79
2018-11-10T06:45:05.940Z,19.79
2018-11-10T06:46:06.022Z,19.8
2018-11-10T06:47:06.690Z,19.81
2018-11-10T06:48:06.268Z,19.81
2018-11-10T06:49:06.003Z,19.81
2018-11-10T06:50:06.085Z,19.81
2018-11-10T06:51:05.929Z,19.82
2018-11-10T06:52:05.942Z,19.81
2018-11-10T06:53:07.185Z,19.83
2018-11-10T06:54:05.997Z,19.84
2018-11-10T06:55:06.037Z,19.84
2018-11-10T06:56:05.987Z,19.84
2018-11-10T06:57:06.262Z,19.84
2018-11-10T06:58:06.236Z,19.85
2018-11-10T06:59:05.997Z,19.85
2018-11-10T07:00:06.085Z,19.86
2018-11-10T07:01:05.825Z,19.86
2018-11-10T07:02:06.141Z,19.86
2018-11-10T07:03:06.023Z,19.87
2018-11-10T07:04:06.985Z,19.87
2018-11-10T07:05:06.133Z,19.88
2018-11-10T07:06:06.068Z,19.88
2018-11-10T07:07:05.984Z,19.88
2018-11-10T07:08:05.863Z,19.88
2018-11-10T07:09:05.873Z,19.88
2018-11-10T07:10:06.183Z,19.89
2018-11-10T07:11:05.838Z,19.89
2018-11-10T07:12:06.066Z,19.89
2018-11-10T07:13:05.955Z,19.9
2018-11-10T07:14:06.118Z,19.89
2018-11-10T07:15:05.869Z,19.9
2018-11-10T07:16:06.023Z,19.91
2018-11-10T07:17:05.706Z,19.91
2018-11-10T07:18:07.180Z,19.91
2018-11-10T07:19:05.973Z,19.91
2018-11-10T07:20:05.811Z,19.91
2018-11-10T07:21:06.107Z,19.92
2018-11-10T07:22:05.734Z,19.91
2018-11-10T07:23:06.079Z,19.92
2018-11-10T07:24:06.110Z,19.92
2018-11-10T07:25:06.901Z,19.92
2018-11-10T07:26:06.016Z,19.92
2018-11-10T07:27:05.754Z,19.92
2018-11-10T07:28:05.919Z,19.92
2018-11-10T07:29:06.342Z,19.93
2018-11-10T07:30:05.980Z,19.91
2018-11-10T07:31:05.701Z,19.94
2018-11-10T07:32:07.100Z,19.92
2018-11-10T07:33:05.900Z,19.93
2018-11-10T07:34:05.881Z,19.94
2018-11-10T07:35:05.882Z,19.94
2018-11-10T07:36:06.103Z,19.94
2018-11-10T07:37:06.068Z,19.94
2018-11-10T07:38:06.066Z,19.94
2018-11-10T07:39:05.894Z,19.94
2018-11-10T07:40:05.748Z,19.95
2018-11-10T07:41:05.894Z,19.95
2018-11-10T07:42:05.994Z,19.95
2018-11-10T07:43:07.152Z,19.96
2018-11-10T07:44:05.972Z,19.97
2018-11-10T07:45:06.325Z,19.98
2018-11-10T07:46:05.878Z,19.99
2018-11-10T07:47:06.141Z,20
2018-11-10T07:48:05.794Z,20
2018-11-10T07:49:05.988Z,20
2018-11-10T07:50:05.963Z,20
2018-11-10T07:51:05.976Z,20.01
2018-11-10T07:52:05.953Z,20.02
2018-11-10T07:53:05.812Z,20.02
2018-11-10T07:54:05.935Z,20.03
2018-11-10T07:55:05.949Z,20.04
2018-11-10T07:56:06.242Z,20.03
2018-11-10T07:57:05.794Z,20.04
2018-11-10T07:58:05.766Z,20.04
2018-11-10T07:59:06.157Z,20.06
2018-11-10T08:00:05.857Z,20.06
2018-11-10T08:01:05.957Z,20.06
2018-11-10T08:02:05.777Z,20.06
2018-11-10T08:03:05.982Z,20.06
2018-11-10T08:04:06.153Z,20.06
2018-11-10T08:05:05.939Z,20.07
2018-11-10T08:06:06.217Z,20.07
2018-11-10T08:07:05.722Z,20.07
2018-11-10T08:08:06.473Z,20.08
2018-11-10T08:09:05.990Z,20.08
2018-11-10T08:10:05.923Z,20.09
2018-11-10T08:11:06.305Z,20.09
2018-11-10T08:12:06.241Z,20.08
2018-11-10T08:13:06.468Z,20.09
2018-11-10T08:14:05.831Z,20.09
2018-11-10T08:15:05.930Z,20.09
2018-11-10T08:16:05.954Z,20.1
2018-11-10T08:17:06.027Z,20.1
2018-11-10T08:18:05.850Z,20.1
2018-11-10T08:19:06.162Z,20.1
2018-11-10T08:20:05.873Z,20.1
2018-11-10T08:21:06.073Z,20.11
2018-11-10T08:22:06.305Z,20.11
2018-11-10T08:23:05.897Z,20.12
2018-11-10T08:24:05.999Z,20.11
2018-11-10T08:25:07.742Z,20.11
2018-11-10T08:26:06.016Z,20.12
2018-11-10T08:27:05.902Z,20.12
2018-11-10T08:28:06.309Z,20.13
2018-11-10T08:29:06.082Z,20.13
2018-11-10T08:30:05.779Z,20.13
2018-11-10T08:31:07.214Z,20.15
2018-11-10T08:32:06.373Z,20.14
2018-11-10T08:33:06.183Z,20.14
2018-11-10T08:34:06.013Z,20.15
2018-11-10T08:35:05.942Z,20.12
2018-11-10T08:36:06.074Z,20.14
2018-11-10T08:37:06.115Z,20.15
2018-11-10T08:38:06.200Z,20.15
2018-11-10T08:39:06.295Z,20.16
2018-11-10T08:40:05.980Z,20.16
2018-11-10T08:41:06.427Z,20.16
2018-11-10T08:42:05.883Z,20.15
2018-11-10T08:43:05.734Z,20.14
2018-11-10T08:44:06.042Z,20.14
2018-11-10T08:45:05.919Z,20.14
2018-11-10T08:46:05.977Z,20.14
2018-11-10T08:47:05.985Z,20.14
2018-11-10T08:48:05.690Z,20.13
2018-11-10T08:49:06.499Z,20.14
2018-11-10T08:50:06.067Z,20.14
2018-11-10T08:51:06.107Z,20.13
2018-11-10T08:52:06.045Z,20.14
2018-11-10T08:53:06.014Z,20.14
2018-11-10T08:54:06.062Z,20.14
2018-11-10T08:55:05.804Z,20.14
2018-11-10T08:56:06.112Z,20.14
2018-11-10T08:57:05.838Z,20.14
2018-11-10T08:58:06.210Z,20.14
2018-11-10T08:59:07.292Z,20.14
2018-11-10T09:00:06.295Z,20.14
2018-11-10T09:01:05.888Z,20.15
2018-11-10T09:02:05.778Z,20.15
2018-11-10T09:03:05.898Z,20.15
2018-11-10T09:04:05.839Z,20.17
2018-11-10T09:05:06.669Z,20.17
2018-11-10T09:06:06.060Z,20.18
2018-11-10T09:07:05.878Z,20.18
2018-11-10T09:08:06.124Z,20.18
2018-11-10T09:09:05.882Z,20.18
2018-11-10T09:10:06.013Z,20.18
2018-11-10T09:11:05.915Z,20.18
2018-11-10T09:12:06.096Z,20.19
2018-11-10T09:13:06.086Z,20.19
2018-11-10T09:14:06.048Z,20.19
2018-11-10T09:15:07.232Z,20.2
2018-11-10T09:16:05.765Z,20.2
2018-11-10T09:17:05.959Z,20.2
2018-11-10T09:18:05.943Z,20.2
2018-11-10T09:19:05.721Z,20.2
2018-11-10T09:20:05.703Z,20.2
2018-11-10T09:21:07.182Z,20.21
2018-11-10T09:22:06.041Z,20.21
2018-11-10T09:23:05.969Z,20.21
2018-11-10T09:24:05.986Z,20.21
2018-11-10T09:25:05.733Z,20.22
2018-11-10T09:26:06.316Z,20.23
2018-11-10T09:27:05.827Z,20.22
2018-11-10T09:28:05.972Z,20.22
2018-11-10T09:29:06.070Z,20.22
2018-11-10T09:30:05.798Z,20.23
2018-11-10T09:31:06.523Z,20.23
2018-11-10T09:32:06.192Z,20.23
2018-11-10T09:33:05.739Z,20.24
2018-11-10T09:34:06.028Z,20.24
2018-11-10T09:35:05.802Z,20.24
2018-11-10T09:36:05.900Z,20.24
2018-11-10T09:37:05.883Z,20.24
2018-11-10T09:38:05.943Z,20.24
2018-11-10T09:39:05.856Z,20.24
2018-11-10T09:40:06.010Z,20.24
2018-11-10T09:41:05.775Z,20.24
2018-11-10T09:42:07.238Z,20.24
2018-11-10T09:43:06.108Z,20.25
2018-11-10T09:44:05.963Z,20.24
2018-11-10T09:44:47.949Z,20.39
2018-11-10T09:45:48.037Z,20.46
2018-11-10T09:46:48.070Z,20.51
2018-11-10T09:47:48.493Z,20.54
2018-11-10T09:48:48.295Z,20.59
2018-11-10T09:49:48.416Z,20.61
2018-11-10T09:50:48.900Z,20.65
2018-11-10T09:51:48.233Z,20.66
2018-11-10T09:52:48.073Z,20.63
2018-11-10T09:53:47.984Z,20.63
2018-11-10T09:54:48.210Z,20.63
2018-11-10T09:55:48.132Z,20.62
2018-11-10T09:56:48.177Z,20.6
2018-11-10T09:57:48.030Z,20.59
2018-11-10T09:58:48.132Z,20.59
2018-11-10T09:59:48.104Z,20.59
2018-11-10T10:00:48.204Z,20.59
2018-11-10T10:01:51.681Z,20.58
2018-11-10T10:02:52.416Z,20.57
2018-11-10T10:03:47.949Z,20.57
2018-11-10T10:04:48.304Z,20.55
2018-11-10T10:05:48.294Z,20.55
2018-11-10T10:06:48.014Z,20.54
2018-11-10T10:07:48.105Z,20.54
2018-11-10T10:08:48.344Z,20.53
2018-11-10T10:09:48.442Z,20.53
2018-11-10T10:10:48.308Z,20.53
2018-11-10T10:11:48.155Z,20.52
2018-11-10T10:12:48.028Z,20.52
2018-11-10T10:13:48.190Z,20.51
2018-11-10T10:14:48.377Z,20.5
2018-11-10T10:15:48.137Z,20.51
2018-11-10T10:16:49.347Z,20.49
2018-11-10T10:17:48.072Z,20.49
2018-11-10T10:18:48.205Z,20.49
2018-11-10T10:19:47.968Z,20.49
2018-11-10T10:20:48.273Z,20.48
2018-11-10T10:21:49.117Z,20.47
2018-11-10T10:22:47.990Z,20.47
2018-11-10T10:23:48.168Z,20.47
2018-11-10T10:24:48.222Z,20.47
2018-11-10T10:25:48.088Z,20.47
2018-11-10T10:26:48.495Z,20.49
2018-11-10T10:27:47.993Z,20.53
2018-11-10T10:28:48.908Z,20.54
2018-11-10T10:29:48.280Z,20.59
2018-11-10T10:30:48.054Z,20.59
2018-11-10T10:31:48.148Z,20.61
2018-11-10T10:32:48.104Z,20.64
2018-11-10T10:34:06.451Z,20.67
2018-11-10T10:35:07.128Z,20.67
2018-11-10T10:36:05.379Z,20.67
2018-11-10T10:36:56.262Z,20.69
2018-11-10T10:37:56.735Z,20.69
2018-11-10T10:38:56.306Z,20.71
2018-11-10T10:40:15.004Z,20.71
2018-11-10T10:41:14.893Z,20.72
2018-11-10T10:42:14.718Z,20.73
2018-11-10T10:43:14.880Z,20.72
2018-11-10T10:44:15.005Z,20.74
2018-11-10T10:45:14.809Z,20.74
2018-11-10T10:46:14.926Z,20.75
2018-11-10T10:46:46.198Z,20.79
2018-11-10T10:47:45.923Z,20.65
2018-11-10T10:48:47.546Z,20.53
2018-11-10T10:49:46.135Z,20.46
2018-11-10T10:50:45.950Z,20.41
2018-11-10T10:51:45.936Z,20.38
2018-11-10T10:52:45.810Z,20.33
2018-11-10T10:53:45.898Z,20.29
2018-11-10T10:54:45.988Z,20.26
2018-11-10T10:55:46.298Z,20.24
2018-11-10T10:56:46.304Z,20.23
2018-11-10T10:57:45.785Z,20.22
2018-11-10T10:58:45.916Z,20.18
2018-11-10T10:59:45.836Z,20.16
2018-11-10T11:00:45.895Z,20.12
2018-11-10T11:01:46.233Z,20.12
2018-11-10T11:02:46.088Z,20.1
2018-11-10T11:03:46.057Z,20.08
2018-11-10T11:04:45.817Z,20.07
2018-11-10T11:05:45.950Z,20.07
2018-11-10T11:06:45.905Z,20.04
2018-11-10T11:07:45.889Z,20.03
2018-11-10T11:08:46.173Z,20.03
2018-11-10T11:09:47.115Z,20.01
2018-11-10T11:10:46.040Z,20
2018-11-10T11:11:45.800Z,20
2018-11-10T11:12:45.925Z,19.98
2018-11-10T11:13:46.017Z,19.97
2018-11-10T11:14:46.376Z,19.96
2018-11-10T11:15:47.019Z,19.95
2018-11-10T11:16:45.940Z,19.95
2018-11-10T11:17:46.029Z,19.95
2018-11-10T11:18:45.897Z,19.94
2018-11-10T11:19:46.700Z,19.94
2018-11-10T11:20:46.509Z,19.94
2018-11-10T11:21:49.958Z,19.94
2018-11-10T11:22:51.661Z,19.93
2018-11-10T11:23:45.787Z,19.93
2018-11-10T11:24:46.239Z,19.93
2018-11-10T11:25:46.229Z,19.92
2018-11-10T11:26:45.947Z,19.92
2018-11-10T11:27:46.027Z,19.93
2018-11-10T11:28:45.838Z,19.93
2018-11-10T11:29:47.390Z,19.93
2018-11-10T11:30:45.942Z,19.92
2018-11-10T11:31:45.999Z,19.94
2018-11-10T11:32:46.336Z,19.94
2018-11-10T11:33:46.790Z,19.93
2018-11-10T11:34:45.995Z,19.93
2018-11-10T11:35:45.921Z,19.92
2018-11-10T11:36:45.990Z,19.91
2018-11-10T11:37:45.821Z,19.9
2018-11-10T11:38:45.789Z,19.89
2018-11-10T11:39:46.017Z,19.88
2018-11-10T11:40:46.161Z,19.88
2018-11-10T11:41:47.366Z,19.88
2018-11-10T11:42:45.928Z,19.86
2018-11-10T11:43:46.045Z,19.87
2018-11-10T11:44:45.832Z,19.86
2018-11-10T11:45:45.945Z,19.85
2018-11-10T11:46:45.864Z,19.85
2018-11-10T11:47:46.057Z,19.84
2018-11-10T11:48:45.951Z,19.86
2018-11-10T11:49:46.502Z,19.86
2018-11-10T11:50:46.098Z,19.87
2018-11-10T11:51:45.824Z,19.85
2018-11-10T11:52:45.973Z,19.85
2018-11-10T11:53:45.994Z,19.85
2018-11-10T11:54:45.996Z,19.84
2018-11-10T11:55:46.069Z,19.84
2018-11-10T11:56:45.704Z,19.84
2018-11-10T11:57:47.058Z,19.83
2018-11-10T11:58:46.008Z,19.83
2018-11-10T11:59:46.340Z,19.82
2018-11-10T12:00:46.268Z,19.82
2018-11-10T12:01:45.903Z,19.82
2018-11-10T12:02:46.038Z,19.81
2018-11-10T12:03:45.919Z,19.81
2018-11-10T12:04:46.085Z,19.82
2018-11-10T12:05:46.359Z,19.83
2018-11-10T12:06:45.878Z,19.83
2018-11-10T12:07:46.366Z,19.82
2018-11-10T12:08:45.994Z,19.83
2018-11-10T12:09:45.947Z,19.82
2018-11-10T12:10:45.832Z,19.82
2018-11-10T12:11:46.284Z,19.81
2018-11-10T12:12:45.844Z,19.82
2018-11-10T12:13:46.004Z,19.81
2018-11-10T12:14:46.046Z,19.81
2018-11-10T12:15:45.885Z,19.81
2018-11-10T12:16:46.837Z,19.81
2018-11-10T12:17:45.865Z,19.81
2018-11-10T12:18:46.316Z,19.81
2018-11-10T12:19:46.329Z,19.81
2018-11-10T12:20:47.497Z,19.81
2018-11-10T12:21:46.389Z,19.8
2018-11-10T12:22:45.864Z,19.8
2018-11-10T12:23:46.221Z,19.79
2018-11-10T12:24:45.741Z,19.78
2018-11-10T12:25:45.926Z,19.79
2018-11-10T12:26:46.414Z,19.78
2018-11-10T12:27:45.918Z,19.78
2018-11-10T12:28:45.734Z,19.78
2018-11-10T12:29:45.988Z,19.78
2018-11-10T12:30:45.936Z,19.77
2018-11-10T12:31:47.145Z,19.77
2018-11-10T12:32:45.916Z,19.77
2018-11-10T12:33:46.267Z,19.76
2018-11-10T12:34:45.907Z,19.76
2018-11-10T12:35:45.878Z,19.75
2018-11-10T12:36:45.751Z,19.75
2018-11-10T12:37:46.061Z,19.75
2018-11-10T12:38:46.566Z,19.75
2018-11-10T12:39:46.141Z,19.74
2018-11-10T12:40:45.852Z,19.73
2018-11-10T12:41:46.492Z,19.73
2018-11-10T12:42:45.763Z,19.73
2018-11-10T12:43:45.910Z,19.72
2018-11-10T12:44:45.837Z,19.72
2018-11-10T12:45:45.747Z,19.72
2018-11-10T12:46:46.550Z,19.71
2018-11-10T12:47:45.875Z,19.71
2018-11-10T12:48:46.052Z,19.71
2018-11-10T12:49:45.819Z,19.71
2018-11-10T12:50:45.917Z,19.7
2018-11-10T12:51:45.791Z,19.7
2018-11-10T12:52:46.263Z,19.7
2018-11-10T12:53:45.743Z,19.7
2018-11-10T12:54:46.129Z,19.69